createdAt,value
2019-06-07T00:00:29.761Z,1.10
2019-06-07T00:03:27.559Z,1.37
2019-06-07T00:06:21.349Z,0.93
2019-06-07T00:09:29.190Z,1.05
2019-06-07T00:12:28.398Z,1.12
2019-06-07T00:15:37.832Z,1.27
2019-06-07T00:18:37.030Z,1.10
2019-06-07T00:24:45.996Z,1.30
2019-06-07T00:27:58.183Z,1.05
2019-06-07T00:30:57.386Z,1.47
2019-06-07T00:34:10.755Z,1.50
2019-06-07T00:37:11.109Z,1.12
2019-06-07T00:40:31.464Z,1.20
2019-06-07T00:43:34.373Z,1.15
2019-06-07T00:46:43.651Z,1.20
2019-06-07T00:49:45.541Z,1.22
2019-06-07T00:53:14.745Z,1.20
2019-06-07T00:55:58.054Z,1.17
2019-06-07T00:59:11.253Z,1.30
2019-06-07T01:02:10.282Z,1.52
2019-06-07T01:05:19.737Z,1.30
2019-06-07T01:08:28.174Z,1.02
2019-06-07T01:11:29.127Z,0.95
2019-06-07T01:14:29.037Z,1.40
2019-06-07T01:18:32.444Z,1.32
2019-06-07T01:20:44.134Z,1.57
2019-06-07T01:24:10.739Z,1.27
2019-06-07T01:26:55.336Z,0.90
2019-06-07T01:30:07.851Z,1.20
2019-06-07T01:33:07.047Z,1.00
2019-06-07T01:36:20.063Z,1.25
2019-06-07T01:39:12.749Z,1.20
2019-06-07T01:42:30.500Z,1.20
2019-06-07T01:45:27.037Z,0.90
2019-06-07T01:48:49.070Z,1.00
2019-06-07T01:51:37.575Z,1.12
2019-06-07T01:54:57.846Z,1.22
2019-06-07T01:57:49.801Z,0.80
2019-06-07T02:01:02.312Z,1.02
2019-06-07T02:04:01.509Z,1.20
2019-06-07T02:07:13.769Z,0.90
2019-06-07T02:10:13.224Z,1.17
2019-06-07T02:13:15.303Z,1.25
2019-06-07T02:16:08.297Z,1.82
2019-06-07T02:19:02.316Z,1.15
2019-06-07T02:21:53.897Z,1.05
2019-06-07T02:25:34.145Z,1.20
2019-06-07T02:27:41.802Z,0.93
2019-06-07T02:30:44.066Z,1.17
2019-06-07T02:33:33.540Z,1.10
2019-06-07T02:36:25.602Z,1.37
2019-06-07T02:39:13.254Z,1.25
2019-06-07T02:42:06.061Z,1.52
2019-06-07T02:44:58.865Z,1.10
2019-06-07T02:47:51.656Z,1.00
2019-06-07T02:50:44.459Z,1.47
2019-06-07T02:53:39.980Z,0.93
2019-06-07T02:56:54.151Z,1.30
2019-06-07T02:59:48.491Z,1.07
2019-06-07T03:02:15.657Z,1.30
2019-06-07T03:05:08.713Z,1.32
2019-06-07T03:08:01.771Z,0.90
2019-06-07T03:10:54.569Z,1.10
2019-06-07T03:13:47.888Z,0.80
2019-06-07T03:16:45.029Z,0.80
2019-06-07T03:19:49.360Z,0.88
2019-06-07T03:22:43.175Z,0.95
2019-06-07T03:25:37.335Z,0.98
2019-06-07T03:28:30.133Z,0.85
2019-06-07T03:31:22.347Z,0.93
2019-06-07T03:34:15.145Z,0.90
2019-06-07T03:37:07.948Z,0.72
2019-06-07T03:40:01.767Z,0.93
2019-06-07T03:42:54.567Z,1.00
2019-06-07T03:45:47.877Z,1.07
2019-06-07T03:48:41.502Z,0.75
2019-06-07T03:51:37.374Z,1.05
2019-06-07T03:54:27.237Z,1.17
2019-06-07T03:57:19.335Z,0.90
2019-06-07T04:00:12.134Z,0.90
2019-06-07T04:03:04.933Z,0.80
2019-06-07T04:05:58.246Z,0.90
2019-06-07T04:08:51.056Z,1.02
2019-06-07T04:11:43.846Z,0.70
2019-06-07T04:14:38.496Z,0.90
2019-06-07T04:17:25.865Z,0.70
2019-06-07T04:20:18.666Z,0.80
2019-06-07T04:23:27.318Z,0.90
2019-06-07T04:26:05.286Z,0.80
2019-06-07T04:31:50.887Z,1.50
2019-06-07T04:34:44.019Z,0.88
2019-06-07T04:37:39.679Z,0.98
2019-06-07T04:40:40.034Z,0.70
2019-06-07T04:43:31.045Z,1.30
2019-06-07T04:46:22.826Z,1.02
2019-06-07T04:49:15.629Z,1.00
2019-06-07T04:52:08.676Z,0.95
2019-06-07T04:55:01.741Z,0.95
2019-06-07T04:57:54.534Z,1.37
2019-06-07T05:01:02.400Z,0.80
2019-06-07T05:03:46.793Z,1.10
2019-06-07T05:06:42.578Z,1.42
2019-06-07T05:09:37.532Z,1.20
2019-06-07T05:12:22.630Z,1.02
2019-06-07T05:15:16.459Z,1.22
2019-06-07T05:18:22.571Z,1.20
2019-06-07T05:21:15.627Z,1.15
2019-06-07T05:24:09.695Z,1.10
2019-06-07T05:26:57.894Z,0.85
2019-06-07T05:30:08.878Z,1.00
2019-06-07T05:32:45.967Z,1.00
2019-06-07T05:35:40.950Z,1.02
2019-06-07T05:38:29.359Z,1.00
2019-06-07T05:41:22.419Z,1.30
2019-06-07T05:44:15.377Z,1.35
2019-06-07T05:47:08.328Z,1.05
2019-06-07T05:49:57.307Z,1.27
2019-06-07T05:52:50.295Z,1.30
2019-06-07T05:55:47.107Z,1.10
2019-06-07T05:58:37.727Z,1.00
2019-06-07T06:01:53.400Z,1.10
2019-06-07T06:04:21.993Z,1.50
2019-06-07T06:07:14.790Z,1.22
2019-06-07T06:10:07.591Z,1.15
2019-06-07T06:13:00.646Z,1.40
2019-06-07T06:16:01.789Z,1.30
2019-06-07T06:18:49.153Z,1.15
2019-06-07T06:21:40.977Z,1.10
2019-06-07T06:24:29.479Z,1.50
2019-06-07T06:28:02.670Z,1.70
2019-06-07T06:30:14.888Z,1.62
2019-06-07T06:33:25.275Z,1.40
2019-06-07T06:36:00.746Z,1.30
2019-06-07T06:38:54.568Z,0.90
2019-06-07T06:41:58.478Z,1.55
2019-06-07T06:44:41.805Z,1.37
2019-06-07T06:47:32.966Z,1.10
2019-06-07T06:50:38.726Z,1.00
2019-06-07T06:53:31.368Z,1.20
2019-06-07T06:56:24.170Z,0.90
2019-06-07T07:02:09.767Z,1.10
2019-06-07T07:08:04.966Z,1.12
2019-06-07T07:11:01.514Z,1.32
2019-06-07T07:13:56.910Z,1.12
2019-06-07T07:16:50.049Z,1.10
2019-06-07T07:19:39.886Z,1.02
2019-06-07T07:22:30.047Z,1.00
2019-06-07T07:25:22.923Z,1.15
2019-06-07T07:28:17.003Z,1.10
2019-06-07T07:31:12.619Z,1.12
2019-06-07T07:34:33.769Z,0.78
2019-06-07T07:36:59.958Z,0.90
2019-06-07T07:39:50.500Z,0.85
2019-06-07T07:42:40.231Z,1.00
2019-06-07T07:45:34.572Z,1.12
2019-06-07T07:48:27.368Z,0.75
2019-06-07T07:51:20.168Z,1.07
2019-06-07T07:54:13.239Z,1.07
2019-06-07T07:57:06.021Z,0.75
2019-06-07T08:00:36.285Z,1.10
2019-06-07T08:02:55.294Z,1.17
2019-06-07T08:05:45.721Z,1.35
2019-06-07T08:08:38.502Z,1.00
2019-06-07T08:11:31.301Z,1.60
2019-06-07T08:14:24.358Z,1.25
2019-06-07T08:17:17.161Z,1.57
2019-06-07T08:20:10.222Z,1.27
2019-06-07T08:23:03.015Z,1.00
2019-06-07T08:26:00.046Z,1.57
2019-06-07T08:28:52.623Z,1.80
2019-06-07T08:31:41.415Z,1.17
2019-06-07T08:34:34.470Z,1.12
2019-06-07T08:38:14.218Z,1.40
2019-06-07T08:40:27.753Z,1.10
2019-06-07T08:43:21.287Z,1.20
2019-06-07T08:46:13.355Z,1.57
2019-06-07T08:49:06.408Z,1.40
2019-06-07T08:52:09.858Z,1.10
2019-06-07T08:54:54.887Z,1.40
2019-06-07T08:57:46.598Z,1.00
2019-06-07T09:00:46.541Z,1.40
2019-06-07T09:03:32.455Z,1.00
2019-06-07T09:07:01.737Z,0.90
2019-06-07T09:09:18.318Z,1.22
2019-06-07T09:12:11.757Z,0.90
2019-06-07T09:15:17.465Z,1.40
2019-06-07T09:21:46.598Z,1.10
2019-06-07T09:24:39.409Z,1.00
2019-06-07T09:27:34.504Z,1.30
2019-06-07T09:30:28.070Z,1.10
2019-06-07T09:33:20.870Z,0.80
2019-06-07T09:36:13.945Z,1.02
2019-06-07T09:39:10.000Z,1.22
2019-06-07T09:42:01.585Z,0.90
2019-06-07T09:44:52.843Z,0.70
2019-06-07T09:47:45.645Z,0.70
2019-06-07T09:50:38.441Z,0.80
2019-06-07T09:53:31.260Z,0.65
2019-06-07T09:56:24.043Z,0.68
2019-06-07T09:59:16.840Z,0.60
2019-06-07T10:02:13.799Z,0.57
2019-06-07T10:05:05.200Z,0.93
2019-06-07T10:08:07.730Z,0.85
2019-06-07T10:10:42.908Z,0.70
2019-06-07T10:13:33.672Z,0.88
2019-06-07T10:16:26.473Z,0.30
2019-06-07T10:19:19.293Z,0.50
2019-06-07T10:22:12.335Z,0.80
2019-06-07T10:25:06.359Z,0.57
2019-06-07T10:27:57.930Z,0.57
2019-06-07T10:30:50.728Z,0.40
2019-06-07T10:33:43.528Z,0.50
2019-06-07T10:36:36.588Z,0.47
2019-06-07T10:39:25.802Z,0.50
2019-06-07T10:42:18.606Z,0.40
2019-06-07T10:45:12.351Z,0.85
2019-06-07T10:48:05.662Z,0.47
2019-06-07T10:50:59.303Z,0.55
2019-06-07T10:53:52.105Z,0.50
2019-06-07T10:56:44.904Z,0.62
2019-06-07T10:59:38.725Z,0.40
2019-06-07T11:02:31.526Z,0.40
2019-06-07T11:05:24.848Z,0.50
2019-06-07T11:08:20.199Z,0.50
2019-06-07T11:11:14.256Z,0.35
2019-06-07T11:14:06.466Z,0.30
2019-06-07T11:17:00.140Z,0.50
2019-06-07T11:19:53.191Z,0.60
2019-06-07T11:22:47.043Z,0.35
2019-06-07T11:25:40.838Z,0.40
2019-06-07T11:28:33.895Z,0.60
2019-06-07T11:31:27.718Z,0.50
2019-06-07T11:34:20.528Z,0.68
2019-06-07T11:37:14.277Z,0.28
2019-06-07T11:40:07.857Z,0.40
2019-06-07T11:42:59.178Z,0.57
2019-06-07T11:45:53.254Z,0.47
2019-06-07T11:48:46.053Z,0.50
2019-06-07T11:51:38.853Z,0.40
2019-06-07T11:54:31.909Z,0.80
2019-06-07T11:57:24.711Z,0.80
2019-06-07T12:00:18.622Z,0.50
2019-06-07T12:03:11.611Z,0.53
2019-06-07T12:06:04.133Z,0.50
2019-06-07T12:08:57.191Z,0.50
2019-06-07T12:11:50.012Z,0.60
2019-06-07T12:14:43.047Z,0.62
2019-06-07T12:17:35.846Z,0.62
2019-06-07T12:20:25.100Z,0.68
2019-06-07T12:23:16.328Z,0.42
2019-06-07T12:26:10.252Z,0.50
2019-06-07T12:29:02.182Z,0.47
2019-06-07T12:31:56.011Z,0.60
2019-06-07T12:34:48.814Z,0.72
2019-06-07T12:37:44.228Z,0.25
2019-06-07T12:40:32.207Z,0.60
2019-06-07T12:43:23.044Z,0.40
2019-06-07T12:46:19.075Z,0.85
2019-06-07T12:49:07.177Z,0.70
2019-06-07T12:51:59.975Z,0.78
2019-06-07T12:54:52.775Z,0.20
2019-06-07T12:57:45.575Z,0.60
2019-06-07T13:00:34.543Z,0.72
2019-06-07T13:03:28.112Z,0.45
2019-06-07T13:06:21.682Z,0.75
2019-06-07T13:09:13.966Z,0.62
2019-06-07T13:12:06.758Z,0.68
2019-06-07T13:15:00.070Z,0.53
2019-06-07T13:17:50.279Z,0.42
2019-06-07T13:20:43.627Z,0.50
2019-06-07T13:23:36.679Z,0.50
2019-06-07T13:26:29.483Z,0.60
2019-06-07T13:29:22.609Z,0.53
2019-06-07T13:32:15.639Z,0.80
2019-06-07T13:35:05.730Z,0.60
2019-06-07T13:37:59.665Z,0.50
2019-06-07T13:40:53.738Z,0.60
2019-06-07T13:43:46.536Z,0.57
2019-06-07T13:46:39.336Z,0.65
2019-06-07T13:49:32.137Z,0.50
2019-06-07T13:52:25.447Z,0.30
2019-06-07T13:55:19.769Z,0.60
2019-06-07T13:58:11.558Z,0.45
2019-06-07T14:01:04.365Z,0.60
2019-06-07T14:03:57.173Z,0.50
2019-06-07T14:06:50.738Z,0.47
2019-06-07T14:09:44.295Z,0.40
2019-06-07T14:12:37.613Z,0.53
2019-06-07T14:15:34.100Z,0.42
2019-06-07T14:18:20.420Z,0.40
2019-06-07T14:21:13.192Z,0.65
2019-06-07T14:24:06.515Z,0.70
2019-06-07T14:27:11.845Z,0.42
2019-06-07T14:30:05.159Z,0.70
2019-06-07T14:32:58.220Z,0.30
2019-06-07T14:35:47.437Z,0.50
2019-06-07T14:38:41.513Z,0.50
2019-06-07T14:41:31.779Z,0.45
2019-06-07T14:44:26.202Z,0.40
2019-06-07T14:47:19.666Z,0.55
2019-06-07T14:50:14.264Z,0.47
2019-06-07T14:53:09.364Z,0.60
2019-06-07T14:56:02.416Z,0.90
2019-06-07T14:58:56.746Z,0.50
2019-06-07T15:01:49.805Z,0.82
2019-06-07T15:04:39.413Z,0.60
2019-06-07T15:07:32.952Z,0.57
2019-06-07T15:10:39.222Z,0.50
2019-06-07T15:13:33.458Z,0.60
2019-06-07T15:16:25.066Z,0.85
2019-06-07T15:19:23.841Z,0.53
2019-06-07T15:22:13.764Z,0.80
2019-06-07T15:25:07.053Z,0.30
2019-06-07T15:27:59.856Z,0.70
2019-06-07T15:30:54.694Z,0.30
2019-06-07T15:33:48.786Z,0.60
2019-06-07T15:36:42.087Z,0.60
2019-06-07T15:39:35.143Z,0.47
2019-06-07T15:42:22.632Z,0.60
2019-06-07T15:45:16.647Z,0.55
2019-06-07T15:48:09.962Z,0.50
2019-06-07T15:51:03.277Z,1.20
2019-06-07T15:53:56.590Z,1.17
2019-06-07T15:56:49.647Z,0.80
2019-06-07T15:59:39.398Z,1.22
2019-06-07T16:02:35.698Z,0.60
2019-06-07T16:05:28.308Z,0.60
2019-06-07T16:08:21.352Z,0.60
2019-06-07T16:11:14.928Z,0.60
2019-06-07T16:14:08.236Z,0.40
2019-06-07T16:17:01.572Z,0.60
2019-06-07T16:19:55.878Z,0.42
2019-06-07T16:22:48.679Z,0.50
2019-06-07T16:25:42.174Z,0.40
2019-06-07T16:28:34.789Z,0.40
2019-06-07T16:31:30.408Z,0.55
2019-06-07T16:34:23.214Z,0.50
2019-06-07T16:37:16.008Z,0.57
2019-06-07T16:40:17.256Z,0.50
2019-06-07T16:43:17.507Z,0.60
2019-06-07T16:46:03.111Z,0.68
2019-06-07T16:48:56.167Z,0.53
2019-06-07T16:51:49.515Z,0.30
2019-06-07T16:54:41.772Z,0.30
2019-06-07T16:57:36.680Z,0.47
2019-06-07T17:00:29.943Z,1.02
2019-06-07T17:03:22.985Z,0.25
2019-06-07T17:06:15.782Z,0.40
2019-06-07T17:09:09.101Z,0.40
2019-06-07T17:12:02.166Z,0.30
2019-06-07T17:14:55.464Z,0.60
2019-06-07T17:17:49.304Z,0.90
2019-06-07T17:20:41.575Z,0.40
2019-06-07T17:23:34.632Z,0.40
2019-06-07T17:26:27.431Z,0.57
2019-06-07T17:29:20.490Z,0.50
2019-06-07T17:32:16.020Z,0.88
2019-06-07T17:35:07.369Z,0.82
2019-06-07T17:38:00.686Z,0.30
2019-06-07T17:40:53.485Z,0.40
2019-06-07T17:43:56.162Z,0.37
2019-06-07T17:46:51.801Z,0.40
2019-06-07T17:49:45.749Z,0.45
2019-06-07T17:52:37.488Z,0.78
2019-06-07T17:55:30.791Z,0.47
2019-06-07T17:58:24.871Z,0.60
2019-06-07T18:01:17.669Z,0.68
2019-06-07T18:04:07.150Z,0.40
2019-06-07T18:07:00.199Z,0.78
2019-06-07T18:09:54.025Z,0.45
2019-06-07T18:12:48.134Z,0.50
2019-06-07T18:15:40.141Z,0.72
2019-06-07T18:18:33.194Z,0.72
2019-06-07T18:24:31.865Z,0.60
2019-06-07T18:27:25.164Z,1.00
2019-06-07T18:30:18.730Z,0.55
2019-06-07T18:33:11.790Z,1.02
2019-06-07T18:36:05.095Z,0.35
2019-06-07T18:38:59.286Z,1.17
2019-06-07T18:41:53.316Z,1.32
2019-06-07T18:44:46.939Z,0.50
2019-06-07T18:47:39.368Z,0.70
2019-06-07T18:50:32.425Z,1.42
2019-06-07T18:53:25.229Z,0.65
2019-06-07T18:56:14.640Z,0.65
2019-06-07T18:59:07.503Z,0.50
2019-06-07T19:02:00.812Z,1.05
2019-06-07T19:04:54.641Z,0.70
2019-06-07T19:07:48.368Z,0.90
2019-06-07T19:10:40.742Z,0.70
2019-06-07T19:13:34.054Z,0.90
2019-06-07T19:16:27.384Z,0.62
2019-06-07T19:19:21.453Z,0.50
2019-06-07T19:22:14.514Z,0.82
2019-06-07T19:25:07.561Z,0.60
2019-06-07T19:28:01.099Z,0.62
2019-06-07T19:30:53.161Z,1.07
2019-06-07T19:33:49.167Z,0.90
2019-06-07T19:36:48.428Z,0.70
2019-06-07T19:39:32.840Z,1.05
2019-06-07T19:42:22.056Z,0.55
2019-06-07T19:45:28.830Z,0.90
2019-06-07T19:48:00.850Z,0.75
2019-06-07T19:50:54.906Z,1.10
2019-06-07T19:53:47.881Z,0.95
2019-06-07T19:56:42.725Z,0.70
2019-06-07T19:59:35.529Z,1.32
2019-06-07T20:02:28.840Z,0.80
2019-06-07T20:05:21.909Z,0.98
2019-06-07T20:08:14.701Z,1.25
2019-06-07T20:11:08.009Z,1.20
2019-06-07T20:14:00.876Z,1.52
2019-06-07T20:16:55.122Z,0.85
2019-06-07T20:19:46.416Z,0.82
2019-06-07T20:22:40.244Z,1.10
2019-06-07T20:25:41.237Z,1.00
2019-06-07T20:28:34.279Z,0.82
2019-06-07T20:31:23.506Z,1.20
2019-06-07T20:34:19.623Z,0.70
2019-06-07T20:37:12.683Z,0.98
2019-06-07T20:40:16.816Z,1.25
2019-06-07T20:42:55.240Z,1.42
2019-06-07T20:45:48.523Z,1.20
2019-06-07T20:48:42.091Z,1.42
2019-06-07T20:51:35.157Z,0.88
2019-06-07T20:54:27.947Z,0.93
2019-06-07T20:57:21.009Z,1.30
2019-06-07T21:00:16.580Z,1.60
2019-06-07T21:03:05.181Z,1.05
2019-06-07T21:05:57.353Z,0.93
2019-06-07T21:08:50.930Z,0.95
2019-06-07T21:11:43.972Z,0.98
2019-06-07T21:14:37.057Z,0.85
2019-06-07T21:17:30.856Z,0.88
2019-06-07T21:20:24.169Z,1.00
2019-06-07T21:23:17.227Z,1.12
2019-06-07T21:26:11.079Z,0.88
2019-06-07T21:29:03.413Z,0.82
2019-06-07T21:31:56.395Z,1.30
2019-06-07T21:34:49.191Z,1.07
2019-06-07T21:37:42.247Z,1.15
2019-06-07T21:40:35.307Z,1.20
2019-06-07T21:43:28.365Z,1.35
2019-06-07T21:46:22.182Z,1.40
2019-06-07T21:49:15.240Z,1.20
2019-06-07T21:52:08.733Z,0.98
2019-06-07T21:55:02.810Z,1.10
2019-06-07T21:57:54.918Z,1.00
2019-06-07T22:00:57.975Z,1.50
2019-06-07T22:03:46.918Z,1.47
2019-06-07T22:06:39.979Z,1.00
2019-06-07T22:09:32.777Z,1.40
2019-06-07T22:12:25.832Z,1.10
2019-06-07T22:15:32.815Z,1.40
2019-06-07T22:18:12.987Z,1.32
2019-06-07T22:21:01.926Z,0.98
2019-06-07T22:23:51.022Z,1.07
2019-06-07T22:26:44.966Z,0.90
2019-06-07T22:29:37.770Z,1.60
2019-06-07T22:32:30.567Z,1.80
2019-06-07T22:35:26.950Z,1.40
2019-06-07T22:38:19.754Z,1.20
2019-06-07T22:41:13.978Z,1.02
2019-06-07T22:44:07.086Z,1.47
2019-06-07T22:46:58.673Z,1.00
2019-06-07T22:49:51.726Z,1.40
2019-06-07T22:52:44.518Z,1.40
2019-06-07T22:55:37.322Z,0.85
2019-06-07T22:58:30.389Z,1.10
2019-06-07T23:01:23.447Z,1.02
2019-06-07T23:04:19.319Z,1.20
2019-06-07T23:07:10.844Z,1.02
2019-06-07T23:10:03.878Z,1.45
2019-06-07T23:12:56.934Z,0.80
2019-06-07T23:15:49.738Z,0.93
2019-06-07T23:18:42.799Z,1.72
2019-06-07T23:21:35.852Z,0.93
2019-06-07T23:24:28.911Z,2.35
2019-06-07T23:27:22.726Z,1.00
2019-06-07T23:30:16.647Z,0.82
2019-06-07T23:33:08.583Z,1.85
2019-06-07T23:36:01.643Z,0.98
2019-06-07T23:38:54.699Z,1.30
2019-06-07T23:41:47.510Z,1.20
2019-06-07T23:44:40.553Z,1.40
2019-06-07T23:47:33.610Z,1.20
2019-06-07T23:50:26.924Z,1.00
2019-06-07T23:53:27.146Z,0.93
2019-06-07T23:56:20.558Z,2.00
2019-06-07T23:59:14.205Z,1.00
